sensor_id;sensor_type;location;lat;lon;timestamp;P1;durP1;ratioP1;P2;durP2;ratioP2
12762;SDS011;6445;52.490;13.378;2023-09-12T00:00:01;11.18;;;9.13;;
12762;SDS011;6445;52.490;13.378;2023-09-12T00:02:28;12.80;;;9.35;;
12762;SDS011;6445;52.490;13.378;2023-09-12T00:04:54;10.35;;;9.27;;
12762;SDS011;6445;52.490;13.378;2023-09-12T00:07:19;13.85;;;9.38;;
12762;SDS011;6445;52.490;13.378;2023-09-12T00:09:44;13.50;;;10.25;;
12762;SDS011;6445;52.490;13.378;2023-09-12T00:12:12;12.10;;;9.40;;
12762;SDS011;6445;52.490;13.378;2023-09-12T00:14:38;17.13;;;9.93;;
12762;SDS011;6445;52.490;13.378;2023-09-12T00:17:04;12.45;;;9.50;;
12762;SDS011;6445;52.490;13.378;2023-09-12T00:19:29;14.45;;;9.75;;
12762;SDS011;6445;52.490;13.378;2023-09-12T00:21:54;13.60;;;10.27;;
12762;SDS011;6445;52.490;13.378;2023-09-12T00:24:20;11.82;;;9.82;;
12762;SDS011;6445;52.490;13.378;2023-09-12T00:26:45;13.82;;;10.50;;
12762;SDS011;6445;52.490;13.378;2023-09-12T00:29:10;16.05;;;10.82;;
12762;SDS011;6445;52.490;13.378;2023-09-12T00:31:35;19.17;;;11.43;;
12762;SDS011;6445;52.490;13.378;2023-09-12T00:34:01;19.73;;;11.40;;
12762;SDS011;6445;52.490;13.378;2023-09-12T00:36:26;14.70;;;11.23;;
12762;SDS011;6445;52.490;13.378;2023-09-12T00:38:51;16.75;;;11.60;;
12762;SDS011;6445;52.490;13.378;2023-09-12T00:41:16;14.88;;;11.43;;
12762;SDS011;6445;52.490;13.378;2023-09-12T00:43:42;16.30;;;11.38;;
12762;SDS011;6445;52.490;13.378;2023-09-12T00:46:07;14.35;;;11.27;;
12762;SDS011;6445;52.490;13.378;2023-09-12T00:48:32;13.55;;;11.40;;
12762;SDS011;6445;52.490;13.378;2023-09-12T00:50:58;14.90;;;11.15;;
12762;SDS011;6445;52.490;13.378;2023-09-12T00:53:24;18.83;;;10.38;;
12762;SDS011;6445;52.490;13.378;2023-09-12T00:55:51;12.80;;;10.10;;
12762;SDS011;6445;52.490;13.378;2023-09-12T00:58:21;11.27;;;10.07;;
12762;SDS011;6445;52.490;13.378;2023-09-12T01:00:47;14.52;;;10.68;;
12762;SDS011;6445;52.490;13.378;2023-09-12T01:03:12;15.90;;;11.38;;
12762;SDS011;6445;52.490;13.378;2023-09-12T01:05:38;11.75;;;10.23;;
12762;SDS011;6445;52.490;13.378;2023-09-12T01:08:03;14.60;;;10.75;;
12762;SDS011;6445;52.490;13.378;2023-09-12T01:10:29;12.85;;;10.13;;
12762;SDS011;6445;52.490;13.378;2023-09-12T01:12:54;11.93;;;10.30;;
12762;SDS011;6445;52.490;13.378;2023-09-12T01:15:20;12.98;;;10.88;;
12762;SDS011;6445;52.490;13.378;2023-09-12T01:17:45;16.17;;;10.35;;
12762;SDS011;6445;52.490;13.378;2023-09-12T01:20:16;12.32;;;9.93;;
12762;SDS011;6445;52.490;13.378;2023-09-12T01:26:24;11.98;;;10.23;;
12762;SDS011;6445;52.490;13.378;2023-09-12T01:28:59;13.60;;;9.52;;
12762;SDS011;6445;52.490;13.378;2023-09-12T01:31:25;12.00;;;10.23;;
12762;SDS011;6445;52.490;13.378;2023-09-12T01:33:54;14.32;;;9.25;;
12762;SDS011;6445;52.490;13.378;2023-09-12T01:36:21;12.57;;;9.23;;
12762;SDS011;6445;52.490;13.378;2023-09-12T01:38:46;12.95;;;10.32;;
12762;SDS011;6445;52.490;13.378;2023-09-12T01:41:12;11.48;;;10.23;;
12762;SDS011;6445;52.490;13.378;2023-09-12T01:43:37;13.52;;;9.80;;
12762;SDS011;6445;52.490;13.378;2023-09-12T01:46:04;12.10;;;10.18;;
12762;SDS011;6445;52.490;13.378;2023-09-12T01:48:31;12.65;;;10.25;;
12762;SDS011;6445;52.490;13.378;2023-09-12T01:50:58;11.63;;;9.90;;
12762;SDS011;6445;52.490;13.378;2023-09-12T01:53:25;11.57;;;9.45;;
12762;SDS011;6445;52.490;13.378;2023-09-12T01:55:51;11.57;;;9.23;;
12762;SDS011;6445;52.490;13.378;2023-09-12T01:58:17;14.48;;;9.48;;
12762;SDS011;6445;52.490;13.378;2023-09-12T02:00:42;13.27;;;10.02;;
12762;SDS011;6445;52.490;13.378;2023-09-12T02:03:08;11.35;;;9.95;;
12762;SDS011;6445;52.490;13.378;2023-09-12T02:05:33;14.93;;;11.15;;
12762;SDS011;6445;52.490;13.378;2023-09-12T02:07:58;12.43;;;9.57;;
12762;SDS011;6445;52.490;13.378;2023-09-12T02:10:26;11.88;;;10.65;;
12762;SDS011;6445;52.490;13.378;2023-09-12T02:12:51;19.33;;;10.30;;
12762;SDS011;6445;52.490;13.378;2023-09-12T02:15:17;16.17;;;10.60;;
12762;SDS011;6445;52.490;13.378;2023-09-12T02:17:42;13.35;;;10.00;;
12762;SDS011;6445;52.490;13.378;2023-09-12T02:20:07;11.45;;;9.57;;
12762;SDS011;6445;52.490;13.378;2023-09-12T02:22:33;12.10;;;9.73;;
12762;SDS011;6445;52.490;13.378;2023-09-12T02:24:59;13.75;;;10.07;;
12762;SDS011;6445;52.490;13.378;2023-09-12T02:27:24;11.05;;;9.88;;
12762;SDS011;6445;52.490;13.378;2023-09-12T02:29:49;11.52;;;9.20;;
12762;SDS011;6445;52.490;13.378;2023-09-12T02:32:14;13.32;;;10.10;;
12762;SDS011;6445;52.490;13.378;2023-09-12T02:34:40;11.73;;;10.02;;
12762;SDS011;6445;52.490;13.378;2023-09-12T02:37:05;14.38;;;9.80;;
12762;SDS011;6445;52.490;13.378;2023-09-12T02:39:30;11.00;;;9.50;;
12762;SDS011;6445;52.490;13.378;2023-09-12T02:41:55;11.95;;;9.88;;
12762;SDS011;6445;52.490;13.378;2023-09-12T02:44:20;11.85;;;10.13;;
12762;SDS011;6445;52.490;13.378;2023-09-12T02:46:46;16.45;;;10.75;;
12762;SDS011;6445;52.490;13.378;2023-09-12T02:49:11;13.15;;;11.10;;
12762;SDS011;6445;52.490;13.378;2023-09-12T02:51:39;12.77;;;10.02;;
12762;SDS011;6445;52.490;13.378;2023-09-12T02:54:04;12.73;;;10.45;;
12762;SDS011;6445;52.490;13.378;2023-09-12T02:56:30;12.55;;;9.85;;
12762;SDS011;6445;52.490;13.378;2023-09-12T02:58:55;12.77;;;9.98;;
12762;SDS011;6445;52.490;13.378;2023-09-12T03:01:21;12.77;;;9.65;;
12762;SDS011;6445;52.490;13.378;2023-09-12T03:03:46;12.45;;;10.05;;
12762;SDS011;6445;52.490;13.378;2023-09-12T03:06:12;13.13;;;10.20;;
12762;SDS011;6445;52.490;13.378;2023-09-12T03:08:39;11.65;;;10.15;;
12762;SDS011;6445;52.490;13.378;2023-09-12T03:11:05;12.73;;;10.40;;
12762;SDS011;6445;52.490;13.378;2023-09-12T03:13:32;16.40;;;10.02;;
12762;SDS011;6445;52.490;13.378;2023-09-12T03:15:57;11.52;;;10.40;;
12762;SDS011;6445;52.490;13.378;2023-09-12T03:18:22;12.18;;;9.70;;
12762;SDS011;6445;52.490;13.378;2023-09-12T03:20:48;17.27;;;10.95;;
12762;SDS011;6445;52.490;13.378;2023-09-12T03:23:13;14.45;;;11.27;;
12762;SDS011;6445;52.490;13.378;2023-09-12T03:25:38;13.05;;;10.80;;
12762;SDS011;6445;52.490;13.378;2023-09-12T03:28:07;18.38;;;11.32;;
12762;SDS011;6445;52.490;13.378;2023-09-12T03:30:33;13.55;;;10.40;;
12762;SDS011;6445;52.490;13.378;2023-09-12T03:32:59;16.70;;;11.25;;
12762;SDS011;6445;52.490;13.378;2023-09-12T03:35:25;20.02;;;12.05;;
12762;SDS011;6445;52.490;13.378;2023-09-12T03:37:50;17.70;;;12.07;;
12762;SDS011;6445;52.490;13.378;2023-09-12T03:40:15;13.65;;;12.00;;
12762;SDS011;6445;52.490;13.378;2023-09-12T03:42:41;15.10;;;12.20;;
12762;SDS011;6445;52.490;13.378;2023-09-12T03:45:06;15.75;;;12.13;;
12762;SDS011;6445;52.490;13.378;2023-09-12T03:47:32;15.65;;;12.65;;
12762;SDS011;6445;52.490;13.378;2023-09-12T03:49:57;17.27;;;12.45;;
12762;SDS011;6445;52.490;13.378;2023-09-12T03:52:22;15.95;;;12.32;;
12762;SDS011;6445;52.490;13.378;2023-09-12T03:54:47;17.30;;;12.73;;
12762;SDS011;6445;52.490;13.378;2023-09-12T03:57:13;19.23;;;13.00;;
12762;SDS011;6445;52.490;13.378;2023-09-12T03:59:38;13.88;;;12.43;;
12762;SDS011;6445;52.490;13.378;2023-09-12T04:02:03;14.98;;;12.15;;
12762;SDS011;6445;52.490;13.378;2023-09-12T04:04:28;15.50;;;12.98;;
12762;SDS011;6445;52.490;13.378;2023-09-12T04:06:54;17.60;;;12.23;;
12762;SDS011;6445;52.490;13.378;2023-09-12T04:09:19;19.23;;;12.73;;
12762;SDS011;6445;52.490;13.378;2023-09-12T04:11:45;17.08;;;12.85;;
12762;SDS011;6445;52.490;13.378;2023-09-12T04:14:10;15.88;;;12.88;;
12762;SDS011;6445;52.490;13.378;2023-09-12T04:16:36;18.20;;;12.77;;
12762;SDS011;6445;52.490;13.378;2023-09-12T04:19:01;14.75;;;12.40;;
12762;SDS011;6445;52.490;13.378;2023-09-12T04:21:26;17.52;;;13.68;;
12762;SDS011;6445;52.490;13.378;2023-09-12T04:23:51;16.38;;;12.85;;
12762;SDS011;6445;52.490;13.378;2023-09-12T04:26:17;16.60;;;13.63;;
12762;SDS011;6445;52.490;13.378;2023-09-12T04:28:42;18.30;;;12.93;;
12762;SDS011;6445;52.490;13.378;2023-09-12T04:31:08;16.52;;;12.82;;
12762;SDS011;6445;52.490;13.378;2023-09-12T04:33:33;17.25;;;11.95;;
12762;SDS011;6445;52.490;13.378;2023-09-12T04:36:00;15.63;;;13.25;;
12762;SDS011;6445;52.490;13.378;2023-09-12T04:38:26;16.80;;;12.13;;
12762;SDS011;6445;52.490;13.378;2023-09-12T04:40:55;17.42;;;12.20;;
12762;SDS011;6445;52.490;13.378;2023-09-12T04:43:21;14.30;;;12.55;;
12762;SDS011;6445;52.490;13.378;2023-09-12T04:45:46;14.55;;;13.05;;
12762;SDS011;6445;52.490;13.378;2023-09-12T04:48:11;16.90;;;11.93;;
12762;SDS011;6445;52.490;13.378;2023-09-12T04:50:42;14.25;;;11.57;;
12762;SDS011;6445;52.490;13.378;2023-09-12T04:53:08;13.88;;;12.02;;
12762;SDS011;6445;52.490;13.378;2023-09-12T04:55:37;17.92;;;12.30;;
12762;SDS011;6445;52.490;13.378;2023-09-12T04:58:03;15.38;;;12.48;;
12762;SDS011;6445;52.490;13.378;2023-09-12T05:00:29;14.60;;;12.15;;
12762;SDS011;6445;52.490;13.378;2023-09-12T05:02:55;13.75;;;11.50;;
12762;SDS011;6445;52.490;13.378;2023-09-12T05:05:20;15.93;;;12.05;;
12762;SDS011;6445;52.490;13.378;2023-09-12T05:07:45;16.77;;;12.15;;
12762;SDS011;6445;52.490;13.378;2023-09-12T05:10:11;16.05;;;12.00;;
12762;SDS011;6445;52.490;13.378;2023-09-12T05:12:37;13.50;;;11.60;;
12762;SDS011;6445;52.490;13.378;2023-09-12T05:15:02;18.70;;;12.10;;
12762;SDS011;6445;52.490;13.378;2023-09-12T05:17:27;20.20;;;11.23;;
12762;SDS011;6445;52.490;13.378;2023-09-12T05:19:53;20.17;;;12.60;;
12762;SDS011;6445;52.490;13.378;2023-09-12T05:22:18;16.80;;;11.50;;
12762;SDS011;6445;52.490;13.378;2023-09-12T05:24:43;18.35;;;12.38;;
12762;SDS011;6445;52.490;13.378;2023-09-12T05:27:09;13.90;;;11.77;;
12762;SDS011;6445;52.490;13.378;2023-09-12T05:29:35;19.58;;;12.60;;
12762;SDS011;6445;52.490;13.378;2023-09-12T05:32:00;16.10;;;13.77;;
12762;SDS011;6445;52.490;13.378;2023-09-12T05:34:26;44.90;;;33.45;;
12762;SDS011;6445;52.490;13.378;2023-09-12T05:36:51;16.98;;;13.35;;
12762;SDS011;6445;52.490;13.378;2023-09-12T05:39:16;14.70;;;12.23;;
12762;SDS011;6445;52.490;13.378;2023-09-12T05:41:41;17.00;;;12.35;;
12762;SDS011;6445;52.490;13.378;2023-09-12T05:44:06;17.25;;;13.05;;
12762;SDS011;6445;52.490;13.378;2023-09-12T05:46:32;17.10;;;12.77;;
12762;SDS011;6445;52.490;13.378;2023-09-12T05:48:57;22.10;;;13.85;;
12762;SDS011;6445;52.490;13.378;2023-09-12T05:51:22;23.65;;;14.30;;
12762;SDS011;6445;52.490;13.378;2023-09-12T05:53:47;23.15;;;14.65;;
12762;SDS011;6445;52.490;13.378;2023-09-12T05:56:13;35.88;;;17.13;;
12762;SDS011;6445;52.490;13.378;2023-09-12T05:58:38;24.10;;;15.00;;
12762;SDS011;6445;52.490;13.378;2023-09-12T06:01:07;22.13;;;13.75;;
12762;SDS011;6445;52.490;13.378;2023-09-12T06:03:33;22.88;;;13.68;;
12762;SDS011;6445;52.490;13.378;2023-09-12T06:05:58;25.40;;;15.07;;
12762;SDS011;6445;52.490;13.378;2023-09-12T06:08:24;20.55;;;12.63;;
12762;SDS011;6445;52.490;13.378;2023-09-12T06:10:49;20.70;;;13.13;;
12762;SDS011;6445;52.490;13.378;2023-09-12T06:13:18;22.33;;;13.13;;
12762;SDS011;6445;52.490;13.378;2023-09-12T06:15:43;31.60;;;16.48;;
12762;SDS011;6445;52.490;13.378;2023-09-12T06:18:09;28.73;;;14.52;;
12762;SDS011;6445;52.490;13.378;2023-09-12T06:20:34;24.00;;;13.13;;
12762;SDS011;6445;52.490;13.378;2023-09-12T06:22:59;20.05;;;13.55;;
12762;SDS011;6445;52.490;13.378;2023-09-12T06:25:24;25.92;;;14.02;;
12762;SDS011;6445;52.490;13.378;2023-09-12T06:27:50;30.83;;;14.20;;
12762;SDS011;6445;52.490;13.378;2023-09-12T06:30:15;17.17;;;10.68;;
12762;SDS011;6445;52.490;13.378;2023-09-12T06:32:40;20.85;;;11.23;;
12762;SDS011;6445;52.490;13.378;2023-09-12T06:35:06;21.87;;;12.07;;
12762;SDS011;6445;52.490;13.378;2023-09-12T06:37:31;25.48;;;12.05;;
12762;SDS011;6445;52.490;13.378;2023-09-12T06:39:57;22.10;;;11.45;;
12762;SDS011;6445;52.490;13.378;2023-09-12T06:42:22;26.93;;;12.23;;
12762;SDS011;6445;52.490;13.378;2023-09-12T06:44:47;34.17;;;12.75;;
12762;SDS011;6445;52.490;13.378;2023-09-12T06:47:12;19.70;;;10.93;;
12762;SDS011;6445;52.490;13.378;2023-09-12T06:49:38;19.52;;;10.48;;
12762;SDS011;6445;52.490;13.378;2023-09-12T06:52:03;21.63;;;11.18;;
12762;SDS011;6445;52.490;13.378;2023-09-12T06:54:29;24.15;;;11.13;;
12762;SDS011;6445;52.490;13.378;2023-09-12T06:56:54;21.90;;;10.97;;
12762;SDS011;6445;52.490;13.378;2023-09-12T06:59:19;18.50;;;10.50;;
12762;SDS011;6445;52.490;13.378;2023-09-12T07:01:44;20.20;;;10.10;;
12762;SDS011;6445;52.490;13.378;2023-09-12T07:04:10;15.90;;;9.95;;
12762;SDS011;6445;52.490;13.378;2023-09-12T07:06:35;12.30;;;8.30;;
12762;SDS011;6445;52.490;13.378;2023-09-12T07:09:00;12.45;;;7.88;;
12762;SDS011;6445;52.490;13.378;2023-09-12T07:11:26;15.73;;;8.52;;
12762;SDS011;6445;52.490;13.378;2023-09-12T07:13:51;11.50;;;7.68;;
12762;SDS011;6445;52.490;13.378;2023-09-12T07:16:16;16.97;;;9.20;;
12762;SDS011;6445;52.490;13.378;2023-09-12T07:18:41;17.98;;;8.65;;
12762;SDS011;6445;52.490;13.378;2023-09-12T07:21:07;12.27;;;7.87;;
12762;SDS011;6445;52.490;13.378;2023-09-12T07:23:32;13.70;;;7.70;;
12762;SDS011;6445;52.490;13.378;2023-09-12T07:25:57;14.88;;;7.20;;
12762;SDS011;6445;52.490;13.378;2023-09-12T07:28:24;18.63;;;8.00;;
12762;SDS011;6445;52.490;13.378;2023-09-12T07:30:49;14.85;;;8.02;;
12762;SDS011;6445;52.490;13.378;2023-09-12T07:33:15;17.17;;;7.68;;
12762;SDS011;6445;52.490;13.378;2023-09-12T07:35:40;12.82;;;8.20;;
12762;SDS011;6445;52.490;13.378;2023-09-12T07:38:05;13.23;;;8.10;;
12762;SDS011;6445;52.490;13.378;2023-09-12T07:40:30;14.53;;;7.23;;
12762;SDS011;6445;52.490;13.378;2023-09-12T07:42:56;13.75;;;8.23;;
12762;SDS011;6445;52.490;13.378;2023-09-12T07:45:21;19.90;;;8.53;;
12762;SDS011;6445;52.490;13.378;2023-09-12T07:47:46;10.20;;;7.05;;
12762;SDS011;6445;52.490;13.378;2023-09-12T07:50:12;12.90;;;7.17;;
12762;SDS011;6445;52.490;13.378;2023-09-12T07:52:37;14.70;;;6.72;;
12762;SDS011;6445;52.490;13.378;2023-09-12T07:55:03;17.23;;;8.10;;
12762;SDS011;6445;52.490;13.378;2023-09-12T07:57:29;14.25;;;7.22;;
12762;SDS011;6445;52.490;13.378;2023-09-12T07:59:55;13.10;;;7.47;;
12762;SDS011;6445;52.490;13.378;2023-09-12T08:02:21;18.65;;;7.88;;
12762;SDS011;6445;52.490;13.378;2023-09-12T08:04:46;12.97;;;7.40;;
12762;SDS011;6445;52.490;13.378;2023-09-12T08:07:12;14.20;;;7.15;;
12762;SDS011;6445;52.490;13.378;2023-09-12T08:09:53;14.80;;;7.33;;
12762;SDS011;6445;52.490;13.378;2023-09-12T08:12:21;17.90;;;6.55;;
12762;SDS011;6445;52.490;13.378;2023-09-12T08:14:47;13.63;;;6.65;;
12762;SDS011;6445;52.490;13.378;2023-09-12T08:17:12;14.37;;;6.97;;
12762;SDS011;6445;52.490;13.378;2023-09-12T08:19:38;14.90;;;7.65;;
12762;SDS011;6445;52.490;13.378;2023-09-12T08:22:04;13.35;;;7.15;;
12762;SDS011;6445;52.490;13.378;2023-09-12T08:24:30;16.10;;;7.13;;
12762;SDS011;6445;52.490;13.378;2023-09-12T08:26:55;14.27;;;7.33;;
12762;SDS011;6445;52.490;13.378;2023-09-12T08:29:20;18.53;;;7.47;;
12762;SDS011;6445;52.490;13.378;2023-09-12T08:31:46;17.83;;;6.95;;
12762;SDS011;6445;52.490;13.378;2023-09-12T08:34:12;17.73;;;8.43;;
12762;SDS011;6445;52.490;13.378;2023-09-12T08:36:37;15.80;;;7.97;;
12762;SDS011;6445;52.490;13.378;2023-09-12T08:39:02;14.07;;;6.83;;
12762;SDS011;6445;52.490;13.378;2023-09-12T08:41:29;10.95;;;6.82;;
12762;SDS011;6445;52.490;13.378;2023-09-12T08:43:54;15.43;;;6.80;;
12762;SDS011;6445;52.490;13.378;2023-09-12T08:46:21;14.65;;;6.88;;
12762;SDS011;6445;52.490;13.378;2023-09-12T08:48:47;14.55;;;6.70;;
12762;SDS011;6445;52.490;13.378;2023-09-12T08:51:14;18.73;;;6.72;;
12762;SDS011;6445;52.490;13.378;2023-09-12T08:53:40;16.02;;;6.68;;
12762;SDS011;6445;52.490;13.378;2023-09-12T08:56:05;19.02;;;7.40;;
12762;SDS011;6445;52.490;13.378;2023-09-12T08:58:32;15.45;;;7.40;;
12762;SDS011;6445;52.490;13.378;2023-09-12T09:00:58;15.32;;;7.03;;
12762;SDS011;6445;52.490;13.378;2023-09-12T09:03:24;17.30;;;6.53;;
12762;SDS011;6445;52.490;13.378;2023-09-12T09:05:51;15.68;;;6.68;;
12762;SDS011;6445;52.490;13.378;2023-09-12T09:08:17;15.70;;;7.18;;
12762;SDS011;6445;52.490;13.378;2023-09-12T09:11:00;15.60;;;7.07;;
12762;SDS011;6445;52.490;13.378;2023-09-12T09:13:30;17.67;;;6.95;;
12762;SDS011;6445;52.490;13.378;2023-09-12T09:18:53;16.20;;;7.43;;
12762;SDS011;6445;52.490;13.378;2023-09-12T09:21:31;18.25;;;6.97;;
12762;SDS011;6445;52.490;13.378;2023-09-12T09:24:04;14.95;;;6.90;;
12762;SDS011;6445;52.490;13.378;2023-09-12T09:26:42;21.50;;;11.88;;
12762;SDS011;6445;52.490;13.378;2023-09-12T09:29:15;9.45;;;6.05;;
12762;SDS011;6445;52.490;13.378;2023-09-12T09:31:42;20.75;;;6.97;;
12762;SDS011;6445;52.490;13.378;2023-09-12T09:34:15;13.40;;;6.75;;
12762;SDS011;6445;52.490;13.378;2023-09-12T09:36:49;15.93;;;7.30;;
12762;SDS011;6445;52.490;13.378;2023-09-12T09:39:18;14.60;;;6.78;;
12762;SDS011;6445;52.490;13.378;2023-09-12T09:41:47;17.73;;;8.60;;
12762;SDS011;6445;52.490;13.378;2023-09-12T09:44:17;18.42;;;7.70;;
12762;SDS011;6445;52.490;13.378;2023-09-12T09:46:43;14.32;;;8.32;;
12762;SDS011;6445;52.490;13.378;2023-09-12T09:49:15;17.65;;;8.02;;
12762;SDS011;6445;52.490;13.378;2023-09-12T09:51:41;19.25;;;7.85;;
12762;SDS011;6445;52.490;13.378;2023-09-12T09:54:10;26.30;;;8.38;;
12762;SDS011;6445;52.490;13.378;2023-09-12T09:56:49;17.05;;;8.68;;
12762;SDS011;6445;52.490;13.378;2023-09-12T09:59:18;17.80;;;8.57;;
12762;SDS011;6445;52.490;13.378;2023-09-12T10:01:46;16.42;;;9.02;;
12762;SDS011;6445;52.490;13.378;2023-09-12T10:04:13;15.73;;;8.88;;
12762;SDS011;6445;52.490;13.378;2023-09-12T10:06:40;14.95;;;8.98;;
12762;SDS011;6445;52.490;13.378;2023-09-12T10:09:10;16.98;;;9.13;;
12762;SDS011;6445;52.490;13.378;2023-09-12T10:11:37;12.98;;;7.80;;
12762;SDS011;6445;52.490;13.378;2023-09-12T10:14:03;18.05;;;8.98;;
12762;SDS011;6445;52.490;13.378;2023-09-12T10:16:30;17.00;;;8.23;;
12762;SDS011;6445;52.490;13.378;2023-09-12T10:21:31;20.13;;;9.48;;
12762;SDS011;6445;52.490;13.378;2023-09-12T10:23:59;15.68;;;9.00;;
12762;SDS011;6445;52.490;13.378;2023-09-12T10:26:25;19.17;;;9.52;;
12762;SDS011;6445;52.490;13.378;2023-09-12T10:28:51;19.92;;;8.75;;
12762;SDS011;6445;52.490;13.378;2023-09-12T10:31:17;15.02;;;8.70;;
12762;SDS011;6445;52.490;13.378;2023-09-12T10:33:44;16.40;;;8.65;;
12762;SDS011;6445;52.490;13.378;2023-09-12T10:36:11;18.05;;;9.02;;
12762;SDS011;6445;52.490;13.378;2023-09-12T10:38:40;19.88;;;9.32;;
12762;SDS011;6445;52.490;13.378;2023-09-12T10:41:10;20.63;;;9.15;;
12762;SDS011;6445;52.490;13.378;2023-09-12T10:43:37;14.20;;;8.18;;
12762;SDS011;6445;52.490;13.378;2023-09-12T10:46:03;19.05;;;8.45;;
12762;SDS011;6445;52.490;13.378;2023-09-12T10:48:29;19.60;;;8.40;;
12762;SDS011;6445;52.490;13.378;2023-09-12T10:50:57;18.77;;;8.27;;
12762;SDS011;6445;52.490;13.378;2023-09-12T10:53:23;17.25;;;7.60;;
12762;SDS011;6445;52.490;13.378;2023-09-12T10:55:58;20.92;;;7.38;;
12762;SDS011;6445;52.490;13.378;2023-09-12T11:01:43;21.10;;;8.40;;
12762;SDS011;6445;52.490;13.378;2023-09-12T11:06:44;20.02;;;7.82;;
12762;SDS011;6445;52.490;13.378;2023-09-12T11:11:39;18.98;;;7.55;;
12762;SDS011;6445;52.490;13.378;2023-09-12T11:14:05;17.75;;;7.55;;
12762;SDS011;6445;52.490;13.378;2023-09-12T11:16:31;15.82;;;7.82;;
12762;SDS011;6445;52.490;13.378;2023-09-12T11:21:48;13.65;;;8.27;;
12762;SDS011;6445;52.490;13.378;2023-09-12T11:24:15;21.98;;;8.02;;
12762;SDS011;6445;52.490;13.378;2023-09-12T11:27:00;16.13;;;8.32;;
12762;SDS011;6445;52.490;13.378;2023-09-12T11:29:30;23.02;;;8.65;;
12762;SDS011;6445;52.490;13.378;2023-09-12T11:32:00;15.30;;;7.72;;
12762;SDS011;6445;52.490;13.378;2023-09-12T11:34:28;18.00;;;8.88;;
12762;SDS011;6445;52.490;13.378;2023-09-12T11:36:55;15.50;;;8.23;;
12762;SDS011;6445;52.490;13.378;2023-09-12T11:39:29;15.52;;;8.38;;
12762;SDS011;6445;52.490;13.378;2023-09-12T11:41:56;15.50;;;8.15;;
12762;SDS011;6445;52.490;13.378;2023-09-12T11:44:22;13.68;;;7.82;;
12762;SDS011;6445;52.490;13.378;2023-09-12T11:46:48;12.15;;;7.53;;
12762;SDS011;6445;52.490;13.378;2023-09-12T11:49:15;12.77;;;7.70;;
12762;SDS011;6445;52.490;13.378;2023-09-12T11:54:19;15.25;;;8.25;;
12762;SDS011;6445;52.490;13.378;2023-09-12T11:56:49;15.50;;;7.85;;
12762;SDS011;6445;52.490;13.378;2023-09-12T11:59:15;19.15;;;7.72;;
12762;SDS011;6445;52.490;13.378;2023-09-12T12:01:43;20.98;;;14.68;;
12762;SDS011;6445;52.490;13.378;2023-09-12T12:04:08;12.80;;;7.82;;
12762;SDS011;6445;52.490;13.378;2023-09-12T12:06:34;13.38;;;7.25;;
12762;SDS011;6445;52.490;13.378;2023-09-12T12:09:00;15.10;;;6.78;;
12762;SDS011;6445;52.490;13.378;2023-09-12T12:11:28;9.18;;;6.30;;
12762;SDS011;6445;52.490;13.378;2023-09-12T12:13:54;12.20;;;6.25;;
12762;SDS011;6445;52.490;13.378;2023-09-12T12:16:19;9.07;;;6.40;;
12762;SDS011;6445;52.490;13.378;2023-09-12T12:18:44;11.73;;;6.30;;
12762;SDS011;6445;52.490;13.378;2023-09-12T12:21:10;10.00;;;7.05;;
12762;SDS011;6445;52.490;13.378;2023-09-12T12:23:35;12.80;;;7.63;;
12762;SDS011;6445;52.490;13.378;2023-09-12T12:26:10;12.10;;;7.53;;
12762;SDS011;6445;52.490;13.378;2023-09-12T12:28:35;9.52;;;6.50;;
12762;SDS011;6445;52.490;13.378;2023-09-12T12:31:01;12.23;;;6.80;;
12762;SDS011;6445;52.490;13.378;2023-09-12T12:33:26;10.50;;;6.53;;
12762;SDS011;6445;52.490;13.378;2023-09-12T12:36:02;8.27;;;6.22;;
12762;SDS011;6445;52.490;13.378;2023-09-12T12:38:33;13.88;;;6.95;;
12762;SDS011;6445;52.490;13.378;2023-09-12T12:40:59;11.38;;;6.70;;
12762;SDS011;6445;52.490;13.378;2023-09-12T12:43:25;9.57;;;6.45;;
12762;SDS011;6445;52.490;13.378;2023-09-12T12:45:55;10.27;;;6.50;;
12762;SDS011;6445;52.490;13.378;2023-09-12T12:48:29;11.48;;;6.55;;
12762;SDS011;6445;52.490;13.378;2023-09-12T12:50:58;12.82;;;6.80;;
12762;SDS011;6445;52.490;13.378;2023-09-12T12:53:37;8.57;;;6.38;;
12762;SDS011;6445;52.490;13.378;2023-09-12T12:56:06;10.38;;;6.30;;
12762;SDS011;6445;52.490;13.378;2023-09-12T12:58:31;14.07;;;6.88;;
12762;SDS011;6445;52.490;13.378;2023-09-12T13:00:56;16.75;;;7.60;;
12762;SDS011;6445;52.490;13.378;2023-09-12T13:03:22;14.27;;;6.68;;
12762;SDS011;6445;52.490;13.378;2023-09-12T13:05:47;11.73;;;6.10;;
12762;SDS011;6445;52.490;13.378;2023-09-12T13:08:12;11.97;;;5.97;;
12762;SDS011;6445;52.490;13.378;2023-09-12T13:10:38;12.00;;;5.93;;
12762;SDS011;6445;52.490;13.378;2023-09-12T13:13:03;9.80;;;6.25;;
12762;SDS011;6445;52.490;13.378;2023-09-12T13:15:29;11.45;;;6.43;;
12762;SDS011;6445;52.490;13.378;2023-09-12T13:17:54;11.38;;;6.38;;
12762;SDS011;6445;52.490;13.378;2023-09-12T13:20:20;11.43;;;5.93;;
12762;SDS011;6445;52.490;13.378;2023-09-12T13:22:46;12.15;;;6.13;;
12762;SDS011;6445;52.490;13.378;2023-09-12T13:25:11;12.97;;;6.37;;
12762;SDS011;6445;52.490;13.378;2023-09-12T13:27:36;12.02;;;6.50;;
12762;SDS011;6445;52.490;13.378;2023-09-12T13:30:02;13.90;;;6.40;;
12762;SDS011;6445;52.490;13.378;2023-09-12T13:32:29;14.07;;;6.45;;
12762;SDS011;6445;52.490;13.378;2023-09-12T13:34:54;15.80;;;6.47;;
12762;SDS011;6445;52.490;13.378;2023-09-12T13:37:20;12.23;;;7.88;;
12762;SDS011;6445;52.490;13.378;2023-09-12T13:39:46;12.05;;;6.88;;
12762;SDS011;6445;52.490;13.378;2023-09-12T13:42:13;14.73;;;6.07;;
12762;SDS011;6445;52.490;13.378;2023-09-12T13:44:43;16.30;;;6.30;;
12762;SDS011;6445;52.490;13.378;2023-09-12T13:47:08;10.67;;;6.30;;
12762;SDS011;6445;52.490;13.378;2023-09-12T13:49:33;12.10;;;6.13;;
12762;SDS011;6445;52.490;13.378;2023-09-12T13:51:59;14.50;;;6.33;;
12762;SDS011;6445;52.490;13.378;2023-09-12T13:54:24;11.40;;;6.45;;
12762;SDS011;6445;52.490;13.378;2023-09-12T13:56:49;18.53;;;6.70;;
12762;SDS011;6445;52.490;13.378;2023-09-12T13:59:14;14.67;;;7.00;;
12762;SDS011;6445;52.490;13.378;2023-09-12T14:01:40;12.35;;;6.05;;
12762;SDS011;6445;52.490;13.378;2023-09-12T14:04:06;13.50;;;6.73;;
12762;SDS011;6445;52.490;13.378;2023-09-12T14:06:32;15.10;;;6.30;;
12762;SDS011;6445;52.490;13.378;2023-09-12T14:08:58;11.93;;;6.22;;
12762;SDS011;6445;52.490;13.378;2023-09-12T14:11:23;12.57;;;6.22;;
12762;SDS011;6445;52.490;13.378;2023-09-12T14:13:49;15.07;;;6.40;;
12762;SDS011;6445;52.490;13.378;2023-09-12T14:16:14;16.20;;;6.28;;
12762;SDS011;6445;52.490;13.378;2023-09-12T14:18:39;15.50;;;6.23;;
12762;SDS011;6445;52.490;13.378;2023-09-12T14:21:04;12.60;;;6.07;;
12762;SDS011;6445;52.490;13.378;2023-09-12T14:23:30;12.70;;;6.82;;
12762;SDS011;6445;52.490;13.378;2023-09-12T14:25:55;19.65;;;6.95;;
12762;SDS011;6445;52.490;13.378;2023-09-12T14:28:20;10.82;;;6.28;;
12762;SDS011;6445;52.490;13.378;2023-09-12T14:30:46;13.45;;;6.32;;
12762;SDS011;6445;52.490;13.378;2023-09-12T14:33:13;12.52;;;6.25;;
12762;SDS011;6445;52.490;13.378;2023-09-12T14:35:38;19.77;;;6.88;;
12762;SDS011;6445;52.490;13.378;2023-09-12T14:38:04;14.48;;;6.53;;
12762;SDS011;6445;52.490;13.378;2023-09-12T14:40:29;10.73;;;5.57;;
12762;SDS011;6445;52.490;13.378;2023-09-12T14:42:55;10.82;;;6.82;;
12762;SDS011;6445;52.490;13.378;2023-09-12T14:45:20;13.67;;;6.20;;